sensor_id;sensor_type;location;lat;lon;timestamp;temperature;humidity
34927;DHT22;21132;48.308;14.274;2022-10-13T00:01:46;12.80;65.70
34927;DHT22;21132;48.308;14.274;2022-10-13T00:04:12;12.80;65.70
34927;DHT22;21132;48.308;14.274;2022-10-13T00:06:38;12.70;65.70
34927;DHT22;21132;48.308;14.274;2022-10-13T00:09:04;12.70;66.50
34927;DHT22;21132;48.308;14.274;2022-10-13T00:11:29;12.70;65.70
34927;DHT22;21132;48.308;14.274;2022-10-13T00:13:58;12.70;65.70
34927;DHT22;21132;48.308;14.274;2022-10-13T00:16:25;12.70;65.80
34927;DHT22;21132;48.308;14.274;2022-10-13T00:18:51;12.70;65.90
34927;DHT22;21132;48.308;14.274;2022-10-13T00:21:19;12.60;65.90
34927;DHT22;21132;48.308;14.274;2022-10-13T00:23:45;12.60;65.80
34927;DHT22;21132;48.308;14.274;2022-10-13T00:26:13;12.60;65.80
34927;DHT22;21132;48.308;14.274;2022-10-13T00:28:39;12.60;65.90
34927;DHT22;21132;48.308;14.274;2022-10-13T00:31:29;12.60;65.90
34927;DHT22;21132;48.308;14.274;2022-10-13T00:33:57;12.60;66.10
34927;DHT22;21132;48.308;14.274;2022-10-13T00:36:24;12.60;66.10
34927;DHT22;21132;48.308;14.274;2022-10-13T00:38:51;12.50;66.00
34927;DHT22;21132;48.308;14.274;2022-10-13T00:41:16;12.50;66.00
34927;DHT22;21132;48.308;14.274;2022-10-13T00:43:55;12.50;66.10
34927;DHT22;21132;48.308;14.274;2022-10-13T00:46:44;12.50;66.20
34927;DHT22;21132;48.308;14.274;2022-10-13T00:49:12;12.50;66.30
34927;DHT22;21132;48.308;14.274;2022-10-13T00:51:40;12.40;66.30
34927;DHT22;21132;48.308;14.274;2022-10-13T00:54:10;12.40;66.40
34927;DHT22;21132;48.308;14.274;2022-10-13T00:56:39;12.40;66.40
34927;DHT22;21132;48.308;14.274;2022-10-13T00:59:18;12.40;66.50
34927;DHT22;21132;48.308;14.274;2022-10-13T01:01:48;12.40;66.60
34927;DHT22;21132;48.308;14.274;2022-10-13T01:04:15;12.40;66.60
34927;DHT22;21132;48.308;14.274;2022-10-13T01:06:42;12.40;67.40
34927;DHT22;21132;48.308;14.274;2022-10-13T01:09:08;12.50;66.70
34927;DHT22;21132;48.308;14.274;2022-10-13T01:19:33;12.50;67.20
34927;DHT22;21132;48.308;14.274;2022-10-13T01:22:21;12.50;67.20
34927;DHT22;21132;48.308;14.274;2022-10-13T01:30:59;12.50;66.90
34927;DHT22;21132;48.308;14.274;2022-10-13T01:33:38;12.50;66.80
34927;DHT22;21132;48.308;14.274;2022-10-13T01:39:06;12.50;66.80
34927;DHT22;21132;48.308;14.274;2022-10-13T01:41:41;12.50;66.80
34927;DHT22;21132;48.308;14.274;2022-10-13T01:44:25;12.50;66.70
34927;DHT22;21132;48.308;14.274;2022-10-13T01:46:54;12.50;66.90
34927;DHT22;21132;48.308;14.274;2022-10-13T01:49:25;12.50;67.20
34927;DHT22;21132;48.308;14.274;2022-10-13T01:51:53;12.50;67.00
34927;DHT22;21132;48.308;14.274;2022-10-13T01:54:20;12.50;66.90
34927;DHT22;21132;48.308;14.274;2022-10-13T01:56:54;12.50;67.00
34927;DHT22;21132;48.308;14.274;2022-10-13T01:59:20;12.40;67.00
34927;DHT22;21132;48.308;14.274;2022-10-13T02:01:59;12.40;67.00
34927;DHT22;21132;48.308;14.274;2022-10-13T02:07:23;12.40;67.30
34927;DHT22;21132;48.308;14.274;2022-10-13T02:12:30;12.50;67.40
34927;DHT22;21132;48.308;14.274;2022-10-13T02:14:58;12.50;67.70
34927;DHT22;21132;48.308;14.274;2022-10-13T02:17:26;12.60;67.80
34927;DHT22;21132;48.308;14.274;2022-10-13T02:19:54;12.60;68.00
34927;DHT22;21132;48.308;14.274;2022-10-13T02:22:22;12.70;68.10
34927;DHT22;21132;48.308;14.274;2022-10-13T02:24:49;12.80;68.30
34927;DHT22;21132;48.308;14.274;2022-10-13T02:27:15;12.90;68.30
34927;DHT22;21132;48.308;14.274;2022-10-13T02:29:54;13.00;68.20
34927;DHT22;21132;48.308;14.274;2022-10-13T02:32:21;13.00;68.10
34927;DHT22;21132;48.308;14.274;2022-10-13T02:34:47;13.10;67.90
34927;DHT22;21132;48.308;14.274;2022-10-13T02:37:13;13.30;68.00
34927;DHT22;21132;48.308;14.274;2022-10-13T02:39:38;13.30;67.90
34927;DHT22;21132;48.308;14.274;2022-10-13T02:42:04;13.40;67.80
34927;DHT22;21132;48.308;14.274;2022-10-13T02:44:30;13.50;68.50
34927;DHT22;21132;48.308;14.274;2022-10-13T02:46:56;13.50;67.60
34927;DHT22;21132;48.308;14.274;2022-10-13T02:49:22;13.60;67.50
34927;DHT22;21132;48.308;14.274;2022-10-13T02:51:47;13.70;67.30
34927;DHT22;21132;48.308;14.274;2022-10-13T02:54:13;13.70;67.20
34927;DHT22;21132;48.308;14.274;2022-10-13T02:56:39;13.80;67.00
34927;DHT22;21132;48.308;14.274;2022-10-13T02:59:05;13.90;66.90
34927;DHT22;21132;48.308;14.274;2022-10-13T03:01:31;13.90;66.90
34927;DHT22;21132;48.308;14.274;2022-10-13T03:03:57;14.00;67.50
34927;DHT22;21132;48.308;14.274;2022-10-13T03:06:23;14.00;66.60
34927;DHT22;21132;48.308;14.274;2022-10-13T03:08:49;14.10;66.50
34927;DHT22;21132;48.308;14.274;2022-10-13T03:11:15;14.10;66.40
34927;DHT22;21132;48.308;14.274;2022-10-13T03:13:41;14.10;66.20
34927;DHT22;21132;48.308;14.274;2022-10-13T03:16:07;14.20;66.20
34927;DHT22;21132;48.308;14.274;2022-10-13T03:18:33;14.30;66.30
34927;DHT22;21132;48.308;14.274;2022-10-13T03:21:02;14.30;66.10
34927;DHT22;21132;48.308;14.274;2022-10-13T03:23:29;14.40;66.10
34927;DHT22;21132;48.308;14.274;2022-10-13T03:25:54;14.40;66.00
34927;DHT22;21132;48.308;14.274;2022-10-13T03:28:21;14.40;65.80
34927;DHT22;21132;48.308;14.274;2022-10-13T03:30:47;14.40;65.70
34927;DHT22;21132;48.308;14.274;2022-10-13T03:33:13;14.50;65.70
34927;DHT22;21132;48.308;14.274;2022-10-13T03:35:39;14.50;65.60
34927;DHT22;21132;48.308;14.274;2022-10-13T03:38:05;14.60;65.60
34927;DHT22;21132;48.308;14.274;2022-10-13T03:40:31;14.60;65.60
34927;DHT22;21132;48.308;14.274;2022-10-13T03:42:57;14.60;65.50
34927;DHT22;21132;48.308;14.274;2022-10-13T03:45:25;14.60;65.30
34927;DHT22;21132;48.308;14.274;2022-10-13T03:47:52;14.70;65.30
34927;DHT22;21132;48.308;14.274;2022-10-13T03:50:17;14.70;65.20
34927;DHT22;21132;48.308;14.274;2022-10-13T03:52:43;14.70;65.00
34927;DHT22;21132;48.308;14.274;2022-10-13T03:55:09;14.80;65.00
34927;DHT22;21132;48.308;14.274;2022-10-13T03:57:35;14.80;64.80
34927;DHT22;21132;48.308;14.274;2022-10-13T04:00:00;14.80;64.70
34927;DHT22;21132;48.308;14.274;2022-10-13T04:02:28;14.80;64.60
34927;DHT22;21132;48.308;14.274;2022-10-13T04:04:54;14.80;64.50
34927;DHT22;21132;48.308;14.274;2022-10-13T04:07:20;14.80;64.50
34927;DHT22;21132;48.308;14.274;2022-10-13T04:09:45;14.90;64.40
34927;DHT22;21132;48.308;14.274;2022-10-13T04:12:11;14.90;64.40
34927;DHT22;21132;48.308;14.274;2022-10-13T04:14:37;14.90;64.30
34927;DHT22;21132;48.308;14.274;2022-10-13T04:17:02;14.90;64.20
34927;DHT22;21132;48.308;14.274;2022-10-13T04:19:28;15.00;64.30
34927;DHT22;21132;48.308;14.274;2022-10-13T04:21:54;15.00;64.20
34927;DHT22;21132;48.308;14.274;2022-10-13T04:24:20;15.00;64.20
34927;DHT22;21132;48.308;14.274;2022-10-13T04:26:45;15.00;64.10
34927;DHT22;21132;48.308;14.274;2022-10-13T04:29:11;15.00;64.10
34927;DHT22;21132;48.308;14.274;2022-10-13T04:31:38;15.00;64.00
34927;DHT22;21132;48.308;14.274;2022-10-13T04:34:04;15.10;64.10
34927;DHT22;21132;48.308;14.274;2022-10-13T04:36:32;15.10;64.10
34927;DHT22;21132;48.308;14.274;2022-10-13T04:38:57;15.00;64.00
34927;DHT22;21132;48.308;14.274;2022-10-13T04:41:23;15.00;63.90
34927;DHT22;21132;48.308;14.274;2022-10-13T04:43:51;15.10;63.80
34927;DHT22;21132;48.308;14.274;2022-10-13T04:46:22;15.10;63.70
34927;DHT22;21132;48.308;14.274;2022-10-13T04:48:49;15.00;63.70
34927;DHT22;21132;48.308;14.274;2022-10-13T04:51:22;15.00;63.70
34927;DHT22;21132;48.308;14.274;2022-10-13T04:53:56;15.10;63.70
34927;DHT22;21132;48.308;14.274;2022-10-13T04:56:23;15.10;63.70
34927;DHT22;21132;48.308;14.274;2022-10-13T04:58:49;15.10;63.70
34927;DHT22;21132;48.308;14.274;2022-10-13T05:01:21;15.10;63.60
34927;DHT22;21132;48.308;14.274;2022-10-13T05:03:55;15.10;63.70
34927;DHT22;21132;48.308;14.274;2022-10-13T05:06:24;15.10;63.70
34927;DHT22;21132;48.308;14.274;2022-10-13T05:08:50;15.10;63.80
34927;DHT22;21132;48.308;14.274;2022-10-13T05:11:17;15.10;63.80
34927;DHT22;21132;48.308;14.274;2022-10-13T05:13:45;15.10;63.80
34927;DHT22;21132;48.308;14.274;2022-10-13T05:16:13;15.10;63.60
34927;DHT22;21132;48.308;14.274;2022-10-13T05:18:40;15.10;63.50
34927;DHT22;21132;48.308;14.274;2022-10-13T05:21:13;15.10;63.50
34927;DHT22;21132;48.308;14.274;2022-10-13T05:23:40;15.20;63.60
34927;DHT22;21132;48.308;14.274;2022-10-13T05:26:11;15.20;63.60
34927;DHT22;21132;48.308;14.274;2022-10-13T05:28:38;15.10;63.40
34927;DHT22;21132;48.308;14.274;2022-10-13T05:31:24;15.10;63.40
34927;DHT22;21132;48.308;14.274;2022-10-13T05:33:50;15.10;63.30
34927;DHT22;21132;48.308;14.274;2022-10-13T05:36:25;15.20;63.40
34927;DHT22;21132;48.308;14.274;2022-10-13T05:38:53;15.20;63.50
34927;DHT22;21132;48.308;14.274;2022-10-13T05:41:20;15.20;63.60
34927;DHT22;21132;48.308;14.274;2022-10-13T05:43:46;15.20;63.60
34927;DHT22;21132;48.308;14.274;2022-10-13T05:46:12;15.30;63.70
34927;DHT22;21132;48.308;14.274;2022-10-13T05:48:38;15.30;63.60
34927;DHT22;21132;48.308;14.274;2022-10-13T05:51:11;15.30;63.60
34927;DHT22;21132;48.308;14.274;2022-10-13T05:53:40;15.30;63.50
34927;DHT22;21132;48.308;14.274;2022-10-13T05:56:12;15.30;63.60
34927;DHT22;21132;48.308;14.274;2022-10-13T05:58:46;15.40;63.70
34927;DHT22;21132;48.308;14.274;2022-10-13T06:01:16;15.50;63.80
34927;DHT22;21132;48.308;14.274;2022-10-13T06:03:44;15.50;63.70
34927;DHT22;21132;48.308;14.274;2022-10-13T06:06:11;15.50;63.60
34927;DHT22;21132;48.308;14.274;2022-10-13T06:08:37;15.60;63.50
34927;DHT22;21132;48.308;14.274;2022-10-13T06:11:03;15.60;63.40
34927;DHT22;21132;48.308;14.274;2022-10-13T06:13:29;15.70;63.40
34927;DHT22;21132;48.308;14.274;2022-10-13T06:15:55;15.70;63.20
34927;DHT22;21132;48.308;14.274;2022-10-13T06:18:21;15.70;63.10
34927;DHT22;21132;48.308;14.274;2022-10-13T06:20:47;15.70;63.00
34927;DHT22;21132;48.308;14.274;2022-10-13T06:23:13;15.80;63.10
34927;DHT22;21132;48.308;14.274;2022-10-13T06:25:47;15.80;63.00
34927;DHT22;21132;48.308;14.274;2022-10-13T06:28:12;15.80;62.90
34927;DHT22;21132;48.308;14.274;2022-10-13T06:30:38;15.90;62.90
34927;DHT22;21132;48.308;14.274;2022-10-13T06:33:04;15.90;62.80
34927;DHT22;21132;48.308;14.274;2022-10-13T06:35:30;16.00;62.80
34927;DHT22;21132;48.308;14.274;2022-10-13T06:37:56;16.00;62.80
34927;DHT22;21132;48.308;14.274;2022-10-13T06:40:22;16.00;62.70
34927;DHT22;21132;48.308;14.274;2022-10-13T06:42:50;16.00;62.50
34927;DHT22;21132;48.308;14.274;2022-10-13T06:45:16;16.00;62.30
34927;DHT22;21132;48.308;14.274;2022-10-13T06:47:44;16.00;62.30
34927;DHT22;21132;48.308;14.274;2022-10-13T06:50:10;16.10;62.30
34927;DHT22;21132;48.308;14.274;2022-10-13T06:52:36;16.10;62.20
34927;DHT22;21132;48.308;14.274;2022-10-13T06:55:03;16.10;62.00
34927;DHT22;21132;48.308;14.274;2022-10-13T06:57:29;16.10;61.80
34927;DHT22;21132;48.308;14.274;2022-10-13T06:59:55;16.10;61.80
34927;DHT22;21132;48.308;14.274;2022-10-13T07:02:21;16.10;61.90
34927;DHT22;21132;48.308;14.274;2022-10-13T07:04:47;16.10;62.00
34927;DHT22;21132;48.308;14.274;2022-10-13T07:07:13;16.10;61.80
34927;DHT22;21132;48.308;14.274;2022-10-13T07:09:39;16.10;61.80
34927;DHT22;21132;48.308;14.274;2022-10-13T07:12:05;16.10;61.90
34927;DHT22;21132;48.308;14.274;2022-10-13T07:14:32;16.20;62.00
34927;DHT22;21132;48.308;14.274;2022-10-13T07:16:58;16.20;61.90
34927;DHT22;21132;48.308;14.274;2022-10-13T07:19:24;16.20;61.80
34927;DHT22;21132;48.308;14.274;2022-10-13T07:21:50;16.20;61.80
34927;DHT22;21132;48.308;14.274;2022-10-13T07:24:16;16.20;61.90
34927;DHT22;21132;48.308;14.274;2022-10-13T07:26:42;16.30;62.10
34927;DHT22;21132;48.308;14.274;2022-10-13T07:29:09;16.30;62.10
34927;DHT22;21132;48.308;14.274;2022-10-13T07:31:34;16.40;62.20
34927;DHT22;21132;48.308;14.274;2022-10-13T07:34:00;16.50;62.30
34927;DHT22;21132;48.308;14.274;2022-10-13T07:36:26;16.60;62.30
34927;DHT22;21132;48.308;14.274;2022-10-13T07:38:53;16.70;62.20
34927;DHT22;21132;48.308;14.274;2022-10-13T07:41:18;16.80;62.00
34927;DHT22;21132;48.308;14.274;2022-10-13T07:43:44;17.00;61.90
34927;DHT22;21132;48.308;14.274;2022-10-13T07:46:13;17.10;61.60
34927;DHT22;21132;48.308;14.274;2022-10-13T07:48:39;17.20;60.80
34927;DHT22;21132;48.308;14.274;2022-10-13T07:51:10;17.40;60.80
34927;DHT22;21132;48.308;14.274;2022-10-13T07:53:38;17.50;60.30
34927;DHT22;21132;48.308;14.274;2022-10-13T07:56:06;17.60;60.20
34927;DHT22;21132;48.308;14.274;2022-10-13T07:58:35;17.70;59.10
34927;DHT22;21132;48.308;14.274;2022-10-13T08:01:03;17.90;58.70
34927;DHT22;21132;48.308;14.274;2022-10-13T08:03:29;18.00;58.10
34927;DHT22;21132;48.308;14.274;2022-10-13T08:05:58;18.20;58.00
34927;DHT22;21132;48.308;14.274;2022-10-13T08:08:24;18.30;58.30
34927;DHT22;21132;48.308;14.274;2022-10-13T08:10:50;18.40;57.20
34927;DHT22;21132;48.308;14.274;2022-10-13T08:13:16;18.50;56.50
34927;DHT22;21132;48.308;14.274;2022-10-13T08:15:42;18.60;56.40
34927;DHT22;21132;48.308;14.274;2022-10-13T08:18:10;18.70;55.80
34927;DHT22;21132;48.308;14.274;2022-10-13T08:20:44;18.80;55.60
34927;DHT22;21132;48.308;14.274;2022-10-13T08:23:12;18.90;55.40
34927;DHT22;21132;48.308;14.274;2022-10-13T08:25:39;19.00;57.00
34927;DHT22;21132;48.308;14.274;2022-10-13T08:28:08;19.20;55.30
34927;DHT22;21132;48.308;14.274;2022-10-13T08:30:40;19.30;54.80
34927;DHT22;21132;48.308;14.274;2022-10-13T08:33:05;19.40;54.40
34927;DHT22;21132;48.308;14.274;2022-10-13T08:35:31;19.50;54.40
34927;DHT22;21132;48.308;14.274;2022-10-13T08:37:58;19.60;54.20
34927;DHT22;21132;48.308;14.274;2022-10-13T08:40:24;19.70;53.90
34927;DHT22;21132;48.308;14.274;2022-10-13T08:42:49;19.70;53.40
34927;DHT22;21132;48.308;14.274;2022-10-13T08:45:27;19.80;53.60
34927;DHT22;21132;48.308;14.274;2022-10-13T08:48:02;19.80;53.50
34927;DHT22;21132;48.308;14.274;2022-10-13T08:50:35;19.80;53.30
34927;DHT22;21132;48.308;14.274;2022-10-13T08:53:26;19.90;53.20
34927;DHT22;21132;48.308;14.274;2022-10-13T08:56:12;20.00;53.00
34927;DHT22;21132;48.308;14.274;2022-10-13T08:58:41;20.00;52.30
34927;DHT22;21132;48.308;14.274;2022-10-13T09:03:51;20.20;52.20
34927;DHT22;21132;48.308;14.274;2022-10-13T09:06:32;20.30;52.00
34927;DHT22;21132;48.308;14.274;2022-10-13T09:09:05;20.40;51.60
34927;DHT22;21132;48.308;14.274;2022-10-13T09:11:34;20.40;51.90
34927;DHT22;21132;48.308;14.274;2022-10-13T09:14:03;20.50;51.70
34927;DHT22;21132;48.308;14.274;2022-10-13T09:16:35;20.50;51.10
34927;DHT22;21132;48.308;14.274;2022-10-13T09:21:37;20.70;50.90
34927;DHT22;21132;48.308;14.274;2022-10-13T09:24:11;20.70;50.70
34927;DHT22;21132;48.308;14.274;2022-10-13T09:26:38;20.70;50.40
34927;DHT22;21132;48.308;14.274;2022-10-13T09:29:10;20.80;50.40
34927;DHT22;21132;48.308;14.274;2022-10-13T09:31:36;20.80;50.10
34927;DHT22;21132;48.308;14.274;2022-10-13T09:36:56;21.00;50.20
34927;DHT22;21132;48.308;14.274;2022-10-13T09:39:22;21.10;50.20
34927;DHT22;21132;48.308;14.274;2022-10-13T09:41:48;21.20;49.20
34927;DHT22;21132;48.308;14.274;2022-10-13T09:44:29;21.20;48.80
34927;DHT22;21132;48.308;14.274;2022-10-13T09:46:57;21.30;49.00
34927;DHT22;21132;48.308;14.274;2022-10-13T09:52:01;21.30;49.10
34927;DHT22;21132;48.308;14.274;2022-10-13T09:54:46;21.30;48.30
34927;DHT22;21132;48.308;14.274;2022-10-13T10:02:47;21.00;49.20
34927;DHT22;21132;48.308;14.274;2022-10-13T10:05:26;20.90;49.30
34927;DHT22;21132;48.308;14.274;2022-10-13T10:08:44;20.70;49.20
34927;DHT22;21132;48.308;14.274;2022-10-13T10:10:44;20.60;49.50
34927;DHT22;21132;48.308;14.274;2022-10-13T10:13:13;20.50;49.70
34927;DHT22;21132;48.308;14.274;2022-10-13T10:18:29;20.30;50.00
34927;DHT22;21132;48.308;14.274;2022-10-13T10:26:19;20.20;50.80
34927;DHT22;21132;48.308;14.274;2022-10-13T10:29:11;20.20;51.00
34927;DHT22;21132;48.308;14.274;2022-10-13T10:34:36;20.30;51.20
34927;DHT22;21132;48.308;14.274;2022-10-13T10:37:17;20.40;51.40
34927;DHT22;21132;48.308;14.274;2022-10-13T10:44:45;20.80;50.60
34927;DHT22;21132;48.308;14.274;2022-10-13T10:47:35;20.90;50.30
34927;DHT22;21132;48.308;14.274;2022-10-13T10:50:06;21.00;50.70
34927;DHT22;21132;48.308;14.274;2022-10-13T10:52:58;21.10;50.70
34927;DHT22;21132;48.308;14.274;2022-10-13T11:03:47;21.60;49.80
34927;DHT22;21132;48.308;14.274;2022-10-13T11:08:46;21.70;49.40
34927;DHT22;21132;48.308;14.274;2022-10-13T11:11:33;21.70;49.20
34927;DHT22;21132;48.308;14.274;2022-10-13T11:19:37;21.80;48.80
34927;DHT22;21132;48.308;14.274;2022-10-13T11:37:47;22.10;48.40
34927;DHT22;21132;48.308;14.274;2022-10-13T11:43:31;22.00;48.30
34927;DHT22;21132;48.308;14.274;2022-10-13T11:46:05;22.00;48.30
34927;DHT22;21132;48.308;14.274;2022-10-13T11:48:40;22.00;48.40
34927;DHT22;21132;48.308;14.274;2022-10-13T11:51:16;22.00;49.10
34927;DHT22;21132;48.308;14.274;2022-10-13T11:53:53;22.00;48.70
34927;DHT22;21132;48.308;14.274;2022-10-13T11:56:30;21.90;47.90
34927;DHT22;21132;48.308;14.274;2022-10-13T11:58:57;21.90;47.40
34927;DHT22;21132;48.308;14.274;2022-10-13T12:01:23;21.80;47.60
34927;DHT22;21132;48.308;14.274;2022-10-13T12:03:49;21.80;48.00
34927;DHT22;21132;48.308;14.274;2022-10-13T12:08:46;21.60;48.00
34927;DHT22;21132;48.308;14.274;2022-10-13T12:11:25;21.60;48.30
34927;DHT22;21132;48.308;14.274;2022-10-13T12:13:51;21.50;48.20
34927;DHT22;21132;48.308;14.274;2022-10-13T12:16:17;21.50;48.40
34927;DHT22;21132;48.308;14.274;2022-10-13T12:18:43;21.50;48.50
34927;DHT22;21132;48.308;14.274;2022-10-13T12:21:15;21.40;48.70
34927;DHT22;21132;48.308;14.274;2022-10-13T12:23:42;21.50;48.80
34927;DHT22;21132;48.308;14.274;2022-10-13T12:26:28;21.50;48.80
34927;DHT22;21132;48.308;14.274;2022-10-13T12:29:01;21.50;48.60
34927;DHT22;21132;48.308;14.274;2022-10-13T12:31:37;21.60;48.80
34927;DHT22;21132;48.308;14.274;2022-10-13T12:34:20;21.60;48.50
34927;DHT22;21132;48.308;14.274;2022-10-13T12:36:59;21.60;48.50
34927;DHT22;21132;48.308;14.274;2022-10-13T12:39:28;21.60;48.50
34927;DHT22;21132;48.308;14.274;2022-10-13T12:41:56;21.60;48.20
34927;DHT22;21132;48.308;14.274;2022-10-13T12:44:26;21.60;47.90
34927;DHT22;21132;48.308;14.274;2022-10-13T12:46:54;21.60;48.00
34927;DHT22;21132;48.308;14.274;2022-10-13T12:49:31;21.60;47.70
34927;DHT22;21132;48.308;14.274;2022-10-13T12:54:31;21.60;47.60
34927;DHT22;21132;48.308;14.274;2022-10-13T12:57:00;21.60;47.60
34927;DHT22;21132;48.308;14.274;2022-10-13T12:59:29;21.50;47.60
34927;DHT22;21132;48.308;14.274;2022-10-13T13:02:03;21.50;47.90
34927;DHT22;21132;48.308;14.274;2022-10-13T13:04:43;21.50;48.00
34927;DHT22;21132;48.308;14.274;2022-10-13T13:07:42;21.60;48.20
34927;DHT22;21132;48.308;14.274;2022-10-13T13:10:18;21.50;48.30
34927;DHT22;21132;48.308;14.274;2022-10-13T13:12:45;21.60;47.90
34927;DHT22;21132;48.308;14.274;2022-10-13T13:17:46;21.60;48.40
34927;DHT22;21132;48.308;14.274;2022-10-13T13:22:51;21.60;48.30
34927;DHT22;21132;48.308;14.274;2022-10-13T13:25:17;21.70;48.20
34927;DHT22;21132;48.308;14.274;2022-10-13T13:27:43;21.70;48.30
34927;DHT22;21132;48.308;14.274;2022-10-13T13:30:13;21.70;47.90
34927;DHT22;21132;48.308;14.274;2022-10-13T13:32:39;21.70;47.40
34927;DHT22;21132;48.308;14.274;2022-10-13T13:35:05;21.80;47.50
34927;DHT22;21132;48.308;14.274;2022-10-13T13:40:03;21.80;47.40
34927;DHT22;21132;48.308;14.274;2022-10-13T13:42:30;21.80;47.30
34927;DHT22;21132;48.308;14.274;2022-10-13T13:44:56;21.80;47.20
34927;DHT22;21132;48.308;14.274;2022-10-13T13:47:24;21.80;47.20
34927;DHT22;21132;48.308;14.274;2022-10-13T13:49:52;21.80;47.30
34927;DHT22;21132;48.308;14.274;2022-10-13T13:52:19;21.80;47.10
34927;DHT22;21132;48.308;14.274;2022-10-13T13:54:46;21.80;47.10
34927;DHT22;21132;48.308;14.274;2022-10-13T13:57:13;21.80;47.20
34927;DHT22;21132;48.308;14.274;2022-10-13T13:59:40;21.90;47.30
34927;DHT22;21132;48.308;14.274;2022-10-13T14:02:12;21.90;47.10
34927;DHT22;21132;48.308;14.274;2022-10-13T14:04:39;21.90;47.00
34927;DHT22;21132;48.308;14.274;2022-10-13T14:07:05;21.90;46.90
34927;DHT22;21132;48.308;14.274;2022-10-13T14:09:30;21.90;47.20
34927;DHT22;21132;48.308;14.274;2022-10-13T14:11:56;21.90;47.50
34927;DHT22;21132;48.308;14.274;2022-10-13T14:14:22;21.90;47.60
34927;DHT22;21132;48.308;14.274;2022-10-13T14:16:48;21.90;47.60
34927;DHT22;21132;48.308;14.274;2022-10-13T14:19:13;21.90;47.50
34927;DHT22;21132;48.308;14.274;2022-10-13T14:21:39;21.90;47.50
34927;DHT22;21132;48.308;14.274;2022-10-13T14:24:05;21.90;47.60
34927;DHT22;21132;48.308;14.274;2022-10-13T14:26:31;21.90;47.70
34927;DHT22;21132;48.308;14.274;2022-10-13T14:28:57;21.90;47.80
34927;DHT22;21132;48.308;14.274;2022-10-13T14:31:23;21.90;48.10
34927;DHT22;21132;48.308;14.274;2022-10-13T14:33:49;21.80;47.20
34927;DHT22;21132;48.308;14.274;2022-10-13T14:36:15;21.90;47.30
34927;DHT22;21132;48.308;14.274;2022-10-13T14:38:40;21.80;47.40
34927;DHT22;21132;48.308;14.274;2022-10-13T14:41:07;21.80;47.60
34927;DHT22;21132;48.308;14.274;2022-10-13T14:43:33;21.80;47.60
34927;DHT22;21132;48.308;14.274;2022-10-13T14:46:04;21.80;48.30
34927;DHT22;21132;48.308;14.274;2022-10-13T14:48:31;21.70;47.70
34927;DHT22;21132;48.308;14.274;2022-10-13T14:50:57;21.70;48.00
34927;DHT22;21132;48.308;14.274;2022-10-13T14:53:23;21.70;48.00
34927;DHT22;21132;48.308;14.274;2022-10-13T14:55:51;21.70;48.10
34927;DHT22;21132;48.308;14.274;2022-10-13T14:58:17;21.60;47.90
34927;DHT22;21132;48.308;14.274;2022-10-13T15:00:43;21.60;48.00
34927;DHT22;21132;48.308;14.274;2022-10-13T15:03:09;21.50;48.20
34927;DHT22;21132;48.308;14.274;2022-10-13T15:05:35;21.50;48.10
34927;DHT22;21132;48.308;14.274;2022-10-13T15:08:01;21.50;48.30
34927;DHT22;21132;48.308;14.274;2022-10-13T15:10:27;21.50;48.60
34927;DHT22;21132;48.308;14.274;2022-10-13T15:12:52;21.40;48.80
34927;DHT22;21132;48.308;14.274;2022-10-13T15:15:18;21.40;49.00
34927;DHT22;21132;48.308;14.274;2022-10-13T15:17:44;21.30;48.90
34927;DHT22;21132;48.308;14.274;2022-10-13T15:20:10;21.30;49.10
34927;DHT22;21132;48.308;14.274;2022-10-13T15:22:36;21.20;49.40
34927;DHT22;21132;48.308;14.274;2022-10-13T15:25:03;21.10;49.20
34927;DHT22;21132;48.308;14.274;2022-10-13T15:27:32;21.10;49.30
34927;DHT22;21132;48.308;14.274;2022-10-13T15:29:59;21.10;49.40
34927;DHT22;21132;48.308;14.274;2022-10-13T15:32:25;21.00;49.60
34927;DHT22;21132;48.308;14.274;2022-10-13T15:34:51;20.90;49.90
34927;DHT22;21132;48.308;14.274;2022-10-13T15:37:17;20.80;50.00
34927;DHT22;21132;48.308;14.274;2022-10-13T15:39:42;20.70;50.10
34927;DHT22;21132;48.308;14.274;2022-10-13T15:42:09;20.70;50.40
34927;DHT22;21132;48.308;14.274;2022-10-13T15:44:36;20.60;50.60
34927;DHT22;21132;48.308;14.274;2022-10-13T15:47:02;20.50;50.80
34927;DHT22;21132;48.308;14.274;2022-10-13T15:49:28;20.40;51.10
34927;DHT22;21132;48.308;14.274;2022-10-13T15:51:53;20.30;51.30
34927;DHT22;21132;48.308;14.274;2022-10-13T15:54:20;20.30;51.40
34927;DHT22;21132;48.308;14.274;2022-10-13T15:56:47;20.20;51.70
34927;DHT22;21132;48.308;14.274;2022-10-13T15:59:13;20.10;51.90
34927;DHT22;21132;48.308;14.274;2022-10-13T16:01:38;20.00;52.80
34927;DHT22;21132;48.308;14.274;2022-10-13T16:04:04;19.90;52.30
34927;DHT22;21132;48.308;14.274;2022-10-13T16:06:30;19.80;52.50
34927;DHT22;21132;48.308;14.274;2022-10-13T16:08:58;19.70;52.70
34927;DHT22;21132;48.308;14.274;2022-10-13T16:11:24;19.60;52.90
34927;DHT22;21132;48.308;14.274;2022-10-13T16:13:51;19.50;53.10
34927;DHT22;21132;48.308;14.274;2022-10-13T16:16:18;19.40;53.30
34927;DHT22;21132;48.308;14.274;2022-10-13T16:18:44;19.40;53.40
34927;DHT22;21132;48.308;14.274;2022-10-13T16:21:19;19.30;53.70
34927;DHT22;21132;48.308;14.274;2022-10-13T16:23:46;19.20;54.00
34927;DHT22;21132;48.308;14.274;2022-10-13T16:26:12;19.10;54.10
34927;DHT22;21132;48.308;14.274;2022-10-13T16:28:38;19.00;54.10
34927;DHT22;21132;48.308;14.274;2022-10-13T16:31:05;18.90;54.50
34927;DHT22;21132;48.308;14.274;2022-10-13T16:33:34;18.80;54.60
34927;DHT22;21132;48.308;14.274;2022-10-13T16:36:08;18.80;54.90
34927;DHT22;21132;48.308;14.274;2022-10-13T16:38:35;18.70;55.10
34927;DHT22;21132;48.308;14.274;2022-10-13T16:41:09;18.60;55.10
34927;DHT22;21132;48.308;14.274;2022-10-13T16:43:35;18.60;55.50
34927;DHT22;21132;48.308;14.274;2022-10-13T16:46:03;18.50;55.40
34927;DHT22;21132;48.308;14.274;2022-10-13T16:48:30;18.40;55.50
34927;DHT22;21132;48.308;14.274;2022-10-13T16:50:56;18.30;55.70
34927;DHT22;21132;48.308;14.274;2022-10-13T16:53:23;18.30;55.80
34927;DHT22;21132;48.308;14.274;2022-10-13T16:55:49;18.20;56.00
34927;DHT22;21132;48.308;14.274;2022-10-13T16:58:15;18.20;56.10
34927;DHT22;21132;48.308;14.274;2022-10-13T17:00:41;18.10;56.20
34927;DHT22;21132;48.308;14.274;2022-10-13T17:03:07;18.00;56.30
34927;DHT22;21132;48.308;14.274;2022-10-13T17:05:33;18.00;56.50
34927;DHT22;21132;48.308;14.274;2022-10-13T17:07:59;17.90;56.60